sensor_id;sensor_type;location;lat;lon;timestamp;temperature;humidity
64869;DHT22;51349;52.424;10.840;2023-12-28T00:00:40;7.70;99.90
64869;DHT22;51349;52.424;10.840;2023-12-28T00:05:41;7.70;99.90
64869;DHT22;51349;52.424;10.840;2023-12-28T00:10:41;7.80;99.90
64869;DHT22;51349;52.424;10.840;2023-12-28T00:15:42;8.10;99.90
64869;DHT22;51349;52.424;10.840;2023-12-28T00:20:43;7.90;99.90
64869;DHT22;51349;52.424;10.840;2023-12-28T00:25:43;8.10;99.90
64869;DHT22;51349;52.424;10.840;2023-12-28T00:30:44;8.10;99.90
64869;DHT22;51349;52.424;10.840;2023-12-28T00:35:45;8.20;99.90
64869;DHT22;51349;52.424;10.840;2023-12-28T00:40:46;8.20;99.90
64869;DHT22;51349;52.424;10.840;2023-12-28T00:45:47;8.20;99.90
64869;DHT22;51349;52.424;10.840;2023-12-28T00:50:47;8.20;99.90
64869;DHT22;51349;52.424;10.840;2023-12-28T00:55:48;8.40;99.90
64869;DHT22;51349;52.424;10.840;2023-12-28T01:00:49;8.30;99.90
64869;DHT22;51349;52.424;10.840;2023-12-28T01:05:53;8.30;99.90
64869;DHT22;51349;52.424;10.840;2023-12-28T01:10:54;8.50;99.90
64869;DHT22;51349;52.424;10.840;2023-12-28T01:15:55;8.60;99.90
64869;DHT22;51349;52.424;10.840;2023-12-28T01:20:55;8.60;99.90
64869;DHT22;51349;52.424;10.840;2023-12-28T01:25:56;8.70;99.90
64869;DHT22;51349;52.424;10.840;2023-12-28T01:30:57;8.80;99.90
64869;DHT22;51349;52.424;10.840;2023-12-28T01:35:58;8.90;99.90
64869;DHT22;51349;52.424;10.840;2023-12-28T01:40:58;8.90;99.90
64869;DHT22;51349;52.424;10.840;2023-12-28T01:45:59;9.00;99.90
64869;DHT22;51349;52.424;10.840;2023-12-28T01:51:00;9.00;99.90
64869;DHT22;51349;52.424;10.840;2023-12-28T01:56:01;8.90;99.90
64869;DHT22;51349;52.424;10.840;2023-12-28T02:01:02;8.80;99.90
64869;DHT22;51349;52.424;10.840;2023-12-28T02:06:03;8.80;99.90
64869;DHT22;51349;52.424;10.840;2023-12-28T02:11:05;8.80;99.90
64869;DHT22;51349;52.424;10.840;2023-12-28T02:16:32;8.70;99.90
64869;DHT22;51349;52.424;10.840;2023-12-28T02:21:34;8.80;99.90
64869;DHT22;51349;52.424;10.840;2023-12-28T02:26:34;8.80;99.90
64869;DHT22;51349;52.424;10.840;2023-12-28T02:31:51;8.70;99.90
64869;DHT22;51349;52.424;10.840;2023-12-28T02:36:55;8.70;99.90
64869;DHT22;51349;52.424;10.840;2023-12-28T02:41:57;8.60;99.90
64869;DHT22;51349;52.424;10.840;2023-12-28T02:46:58;8.70;99.90
64869;DHT22;51349;52.424;10.840;2023-12-28T02:51:59;8.70;99.90
64869;DHT22;51349;52.424;10.840;2023-12-28T02:57:00;8.70;99.90
64869;DHT22;51349;52.424;10.840;2023-12-28T03:02:00;8.70;99.90
64869;DHT22;51349;52.424;10.840;2023-12-28T03:07:01;8.60;99.90
64869;DHT22;51349;52.424;10.840;2023-12-28T03:12:02;8.70;99.90
64869;DHT22;51349;52.424;10.840;2023-12-28T03:17:03;8.70;99.90
64869;DHT22;51349;52.424;10.840;2023-12-28T03:22:03;8.70;99.90
64869;DHT22;51349;52.424;10.840;2023-12-28T03:27:05;8.70;99.90
64869;DHT22;51349;52.424;10.840;2023-12-28T03:32:06;8.70;99.90
64869;DHT22;51349;52.424;10.840;2023-12-28T03:37:06;8.70;99.90
64869;DHT22;51349;52.424;10.840;2023-12-28T03:42:07;8.70;99.90
64869;DHT22;51349;52.424;10.840;2023-12-28T03:47:08;8.70;99.90
64869;DHT22;51349;52.424;10.840;2023-12-28T03:52:09;8.80;99.90
64869;DHT22;51349;52.424;10.840;2023-12-28T03:57:09;8.70;99.90
64869;DHT22;51349;52.424;10.840;2023-12-28T04:02:11;8.70;99.90
64869;DHT22;51349;52.424;10.840;2023-12-28T04:07:11;8.70;99.90
64869;DHT22;51349;52.424;10.840;2023-12-28T04:12:12;8.70;99.90
64869;DHT22;51349;52.424;10.840;2023-12-28T04:17:13;8.60;99.90
64869;DHT22;51349;52.424;10.840;2023-12-28T04:22:14;8.60;99.90
64869;DHT22;51349;52.424;10.840;2023-12-28T04:27:14;8.50;99.90
64869;DHT22;51349;52.424;10.840;2023-12-28T04:32:15;8.50;99.90
64869;DHT22;51349;52.424;10.840;2023-12-28T04:37:16;8.50;99.90
64869;DHT22;51349;52.424;10.840;2023-12-28T04:42:17;8.40;99.90
64869;DHT22;51349;52.424;10.840;2023-12-28T04:47:18;8.40;99.90
64869;DHT22;51349;52.424;10.840;2023-12-28T04:52:18;8.40;99.90
64869;DHT22;51349;52.424;10.840;2023-12-28T04:57:19;8.30;99.90
64869;DHT22;51349;52.424;10.840;2023-12-28T05:02:20;8.30;99.90
64869;DHT22;51349;52.424;10.840;2023-12-28T05:07:21;8.20;99.90
64869;DHT22;51349;52.424;10.840;2023-12-28T05:12:21;8.20;99.90
64869;DHT22;51349;52.424;10.840;2023-12-28T05:17:22;8.20;99.90
64869;DHT22;51349;52.424;10.840;2023-12-28T05:22:23;8.10;99.90
64869;DHT22;51349;52.424;10.840;2023-12-28T05:27:23;8.10;99.90
64869;DHT22;51349;52.424;10.840;2023-12-28T05:32:24;8.10;99.90
64869;DHT22;51349;52.424;10.840;2023-12-28T05:37:25;8.00;99.90
64869;DHT22;51349;52.424;10.840;2023-12-28T05:42:25;7.80;99.90
64869;DHT22;51349;52.424;10.840;2023-12-28T05:47:26;7.80;99.90
64869;DHT22;51349;52.424;10.840;2023-12-28T05:52:27;7.80;99.90
64869;DHT22;51349;52.424;10.840;2023-12-28T05:57:28;7.90;99.90
64869;DHT22;51349;52.424;10.840;2023-12-28T06:02:31;7.80;99.90
64869;DHT22;51349;52.424;10.840;2023-12-28T06:07:32;7.80;99.90
64869;DHT22;51349;52.424;10.840;2023-12-28T06:12:32;7.80;99.90
64869;DHT22;51349;52.424;10.840;2023-12-28T06:17:33;7.90;99.90
64869;DHT22;51349;52.424;10.840;2023-12-28T06:22:36;7.90;99.90
64869;DHT22;51349;52.424;10.840;2023-12-28T06:27:37;7.90;99.90
64869;DHT22;51349;52.424;10.840;2023-12-28T06:32:38;7.90;99.90
64869;DHT22;51349;52.424;10.840;2023-12-28T06:37:39;7.90;99.90
64869;DHT22;51349;52.424;10.840;2023-12-28T06:42:39;8.00;99.90
64869;DHT22;51349;52.424;10.840;2023-12-28T06:47:43;7.90;99.90
64869;DHT22;51349;52.424;10.840;2023-12-28T06:52:44;7.90;99.90
64869;DHT22;51349;52.424;10.840;2023-12-28T06:57:45;7.90;99.90
64869;DHT22;51349;52.424;10.840;2023-12-28T07:02:45;8.00;99.90
64869;DHT22;51349;52.424;10.840;2023-12-28T07:07:46;8.10;99.90
64869;DHT22;51349;52.424;10.840;2023-12-28T07:12:47;8.20;99.90
64869;DHT22;51349;52.424;10.840;2023-12-28T07:17:48;8.10;99.90
64869;DHT22;51349;52.424;10.840;2023-12-28T07:22:49;8.20;99.90
64869;DHT22;51349;52.424;10.840;2023-12-28T07:27:49;8.20;99.90
64869;DHT22;51349;52.424;10.840;2023-12-28T07:32:50;8.10;99.90
64869;DHT22;51349;52.424;10.840;2023-12-28T07:37:51;8.20;99.90
64869;DHT22;51349;52.424;10.840;2023-12-28T07:42:52;8.20;99.90
64869;DHT22;51349;52.424;10.840;2023-12-28T07:47:53;8.20;99.90
64869;DHT22;51349;52.424;10.840;2023-12-28T07:52:53;8.30;99.90
64869;DHT22;51349;52.424;10.840;2023-12-28T07:57:54;8.30;99.90
64869;DHT22;51349;52.424;10.840;2023-12-28T08:03:01;8.30;99.90
64869;DHT22;51349;52.424;10.840;2023-12-28T08:08:03;8.50;99.90
64869;DHT22;51349;52.424;10.840;2023-12-28T08:13:06;8.50;99.90
64869;DHT22;51349;52.424;10.840;2023-12-28T08:18:06;8.40;99.90
64869;DHT22;51349;52.424;10.840;2023-12-28T08:23:07;8.50;99.90
64869;DHT22;51349;52.424;10.840;2023-12-28T08:28:08;8.40;99.90
64869;DHT22;51349;52.424;10.840;2023-12-28T08:33:09;8.50;99.90
64869;DHT22;51349;52.424;10.840;2023-12-28T08:38:11;8.50;99.90
64869;DHT22;51349;52.424;10.840;2023-12-28T08:43:12;8.50;99.90
64869;DHT22;51349;52.424;10.840;2023-12-28T08:48:12;8.40;99.90
64869;DHT22;51349;52.424;10.840;2023-12-28T08:53:13;8.40;99.90
64869;DHT22;51349;52.424;10.840;2023-12-28T08:58:14;8.30;99.90
64869;DHT22;51349;52.424;10.840;2023-12-28T09:03:15;8.30;99.90
64869;DHT22;51349;52.424;10.840;2023-12-28T09:08:16;8.30;99.90
64869;DHT22;51349;52.424;10.840;2023-12-28T09:13:17;8.30;99.90
64869;DHT22;51349;52.424;10.840;2023-12-28T09:18:17;8.50;99.90
64869;DHT22;51349;52.424;10.840;2023-12-28T09:23:18;8.60;99.90
64869;DHT22;51349;52.424;10.840;2023-12-28T09:28:19;8.70;99.90
64869;DHT22;51349;52.424;10.840;2023-12-28T09:33:20;8.80;99.90
64869;DHT22;51349;52.424;10.840;2023-12-28T09:38:21;8.90;99.90
64869;DHT22;51349;52.424;10.840;2023-12-28T09:43:24;9.10;99.90
64869;DHT22;51349;52.424;10.840;2023-12-28T09:48:25;9.10;99.90
64869;DHT22;51349;52.424;10.840;2023-12-28T09:53:27;9.20;99.90
64869;DHT22;51349;52.424;10.840;2023-12-28T09:58:27;9.20;99.90
64869;DHT22;51349;52.424;10.840;2023-12-28T10:03:30;9.20;99.90
64869;DHT22;51349;52.424;10.840;2023-12-28T10:08:31;9.20;99.90
64869;DHT22;51349;52.424;10.840;2023-12-28T10:13:33;9.90;99.90
64869;DHT22;51349;52.424;10.840;2023-12-28T10:18:35;10.10;99.90
64869;DHT22;51349;52.424;10.840;2023-12-28T10:23:36;10.50;99.90
64869;DHT22;51349;52.424;10.840;2023-12-28T10:28:37;10.40;99.90
64869;DHT22;51349;52.424;10.840;2023-12-28T10:33:39;10.50;99.90
64869;DHT22;51349;52.424;10.840;2023-12-28T10:38:41;10.30;99.90
64869;DHT22;51349;52.424;10.840;2023-12-28T10:43:45;10.20;99.90
64869;DHT22;51349;52.424;10.840;2023-12-28T10:48:49;10.20;99.90
64869;DHT22;51349;52.424;10.840;2023-12-28T10:54:03;10.30;99.90
64869;DHT22;51349;52.424;10.840;2023-12-28T11:09:31;10.10;99.90
64869;DHT22;51349;52.424;10.840;2023-12-28T11:14:34;10.20;99.90
64869;DHT22;51349;52.424;10.840;2023-12-28T11:19:36;10.30;99.90
64869;DHT22;51349;52.424;10.840;2023-12-28T11:24:37;10.40;99.90
64869;DHT22;51349;52.424;10.840;2023-12-28T11:29:41;10.50;99.90
64869;DHT22;51349;52.424;10.840;2023-12-28T11:34:42;10.90;99.90
64869;DHT22;51349;52.424;10.840;2023-12-28T11:39:43;10.70;99.90
64869;DHT22;51349;52.424;10.840;2023-12-28T11:44:45;10.70;99.90
64869;DHT22;51349;52.424;10.840;2023-12-28T11:49:45;10.70;99.90
64869;DHT22;51349;52.424;10.840;2023-12-28T11:54:51;10.60;99.90
64869;DHT22;51349;52.424;10.840;2023-12-28T12:00:01;10.90;99.90
64869;DHT22;51349;52.424;10.840;2023-12-28T12:05:08;11.10;99.90
64869;DHT22;51349;52.424;10.840;2023-12-28T12:10:14;11.30;99.90
64869;DHT22;51349;52.424;10.840;2023-12-28T12:15:16;11.00;99.90
64869;DHT22;51349;52.424;10.840;2023-12-28T12:20:17;10.90;99.90
64869;DHT22;51349;52.424;10.840;2023-12-28T12:25:18;10.80;99.90
64869;DHT22;51349;52.424;10.840;2023-12-28T12:30:20;10.80;99.90
64869;DHT22;51349;52.424;10.840;2023-12-28T12:35:21;10.90;99.90
64869;DHT22;51349;52.424;10.840;2023-12-28T12:40:22;10.90;99.90
64869;DHT22;51349;52.424;10.840;2023-12-28T12:45:24;10.90;99.90
64869;DHT22;51349;52.424;10.840;2023-12-28T12:50:25;11.00;99.90
64869;DHT22;51349;52.424;10.840;2023-12-28T12:55:26;11.00;99.90
64869;DHT22;51349;52.424;10.840;2023-12-28T13:00:27;11.00;99.90
64869;DHT22;51349;52.424;10.840;2023-12-28T13:05:29;11.10;99.90
64869;DHT22;51349;52.424;10.840;2023-12-28T13:10:30;11.10;99.90
64869;DHT22;51349;52.424;10.840;2023-12-28T13:15:31;11.00;99.90
64869;DHT22;51349;52.424;10.840;2023-12-28T13:20:32;11.00;99.90
64869;DHT22;51349;52.424;10.840;2023-12-28T13:25:32;11.10;99.90
64869;DHT22;51349;52.424;10.840;2023-12-28T13:30:33;11.10;99.90
64869;DHT22;51349;52.424;10.840;2023-12-28T13:35:34;11.10;99.90
64869;DHT22;51349;52.424;10.840;2023-12-28T13:40:35;11.00;99.90
64869;DHT22;51349;52.424;10.840;2023-12-28T13:45:36;11.00;99.90
64869;DHT22;51349;52.424;10.840;2023-12-28T13:50:37;11.00;99.90
64869;DHT22;51349;52.424;10.840;2023-12-28T13:55:37;11.00;99.90
64869;DHT22;51349;52.424;10.840;2023-12-28T14:00:39;10.90;99.90
64869;DHT22;51349;52.424;10.840;2023-12-28T14:05:40;10.80;99.90
64869;DHT22;51349;52.424;10.840;2023-12-28T14:10:42;10.80;99.90
64869;DHT22;51349;52.424;10.840;2023-12-28T14:15:44;10.80;99.90
64869;DHT22;51349;52.424;10.840;2023-12-28T14:20:46;10.70;99.90
64869;DHT22;51349;52.424;10.840;2023-12-28T14:25:47;10.70;99.90
64869;DHT22;51349;52.424;10.840;2023-12-28T14:30:54;10.70;99.90
64869;DHT22;51349;52.424;10.840;2023-12-28T14:35:55;10.60;99.90
64869;DHT22;51349;52.424;10.840;2023-12-28T14:40:56;10.60;99.90
64869;DHT22;51349;52.424;10.840;2023-12-28T14:45:57;10.50;99.90
64869;DHT22;51349;52.424;10.840;2023-12-28T14:50:58;10.60;99.90
64869;DHT22;51349;52.424;10.840;2023-12-28T14:55:59;10.40;99.90
64869;DHT22;51349;52.424;10.840;2023-12-28T15:01:00;10.40;99.90
64869;DHT22;51349;52.424;10.840;2023-12-28T15:06:01;10.20;99.90
64869;DHT22;51349;52.424;10.840;2023-12-28T15:11:02;10.30;99.90
64869;DHT22;51349;52.424;10.840;2023-12-28T15:16:04;10.30;99.90
64869;DHT22;51349;52.424;10.840;2023-12-28T15:21:05;10.30;99.90
64869;DHT22;51349;52.424;10.840;2023-12-28T15:26:06;10.40;99.90
64869;DHT22;51349;52.424;10.840;2023-12-28T15:31:07;10.40;99.90
64869;DHT22;51349;52.424;10.840;2023-12-28T15:36:08;10.50;99.90
64869;DHT22;51349;52.424;10.840;2023-12-28T15:41:09;10.40;99.90
64869;DHT22;51349;52.424;10.840;2023-12-28T15:46:10;10.40;99.90
64869;DHT22;51349;52.424;10.840;2023-12-28T15:51:11;10.30;99.90
64869;DHT22;51349;52.424;10.840;2023-12-28T15:56:12;10.40;99.90
64869;DHT22;51349;52.424;10.840;2023-12-28T16:01:12;10.40;99.90
64869;DHT22;51349;52.424;10.840;2023-12-28T16:06:13;10.30;99.90
64869;DHT22;51349;52.424;10.840;2023-12-28T16:11:14;10.30;99.90
64869;DHT22;51349;52.424;10.840;2023-12-28T16:16:15;10.20;99.90
64869;DHT22;51349;52.424;10.840;2023-12-28T16:21:16;10.00;99.90
64869;DHT22;51349;52.424;10.840;2023-12-28T16:26:17;10.00;99.90
64869;DHT22;51349;52.424;10.840;2023-12-28T16:31:19;9.90;99.90
64869;DHT22;51349;52.424;10.840;2023-12-28T16:36:20;9.80;99.90
64869;DHT22;51349;52.424;10.840;2023-12-28T16:41:21;9.60;99.90
64869;DHT22;51349;52.424;10.840;2023-12-28T16:46:22;9.50;99.90
64869;DHT22;51349;52.424;10.840;2023-12-28T16:51:22;9.50;99.90
64869;DHT22;51349;52.424;10.840;2023-12-28T16:56:23;9.30;99.90
64869;DHT22;51349;52.424;10.840;2023-12-28T17:01:25;9.40;99.90
64869;DHT22;51349;52.424;10.840;2023-12-28T17:06:26;9.40;99.90
64869;DHT22;51349;52.424;10.840;2023-12-28T17:11:27;9.40;99.90
64869;DHT22;51349;52.424;10.840;2023-12-28T17:16:28;9.30;99.90
64869;DHT22;51349;52.424;10.840;2023-12-28T17:21:31;9.40;99.90
64869;DHT22;51349;52.424;10.840;2023-12-28T17:26:38;9.30;99.90
64869;DHT22;51349;52.424;10.840;2023-12-28T17:31:44;9.30;99.90
64869;DHT22;51349;52.424;10.840;2023-12-28T17:36:45;9.30;99.90
64869;DHT22;51349;52.424;10.840;2023-12-28T17:41:47;9.30;99.90
64869;DHT22;51349;52.424;10.840;2023-12-28T17:46:59;9.40;99.90
64869;DHT22;51349;52.424;10.840;2023-12-28T17:52:05;9.30;99.90
64869;DHT22;51349;52.424;10.840;2023-12-28T17:57:07;9.10;99.90
64869;DHT22;51349;52.424;10.840;2023-12-28T18:02:10;9.20;99.90
64869;DHT22;51349;52.424;10.840;2023-12-28T18:07:12;9.20;99.90
64869;DHT22;51349;52.424;10.840;2023-12-28T18:12:13;9.20;99.90
64869;DHT22;51349;52.424;10.840;2023-12-28T18:17:13;9.00;99.90
64869;DHT22;51349;52.424;10.840;2023-12-28T18:22:14;9.00;99.90
64869;DHT22;51349;52.424;10.840;2023-12-28T18:27:15;9.20;99.90
64869;DHT22;51349;52.424;10.840;2023-12-28T18:32:16;9.10;99.90
64869;DHT22;51349;52.424;10.840;2023-12-28T18:37:17;9.20;99.90
64869;DHT22;51349;52.424;10.840;2023-12-28T18:42:19;9.20;99.90
64869;DHT22;51349;52.424;10.840;2023-12-28T18:47:20;9.20;99.90
64869;DHT22;51349;52.424;10.840;2023-12-28T18:52:21;9.20;99.90
64869;DHT22;51349;52.424;10.840;2023-12-28T18:57:22;9.00;99.90
64869;DHT22;51349;52.424;10.840;2023-12-28T19:02:23;9.00;99.90
64869;DHT22;51349;52.424;10.840;2023-12-28T19:07:26;9.00;99.90
64869;DHT22;51349;52.424;10.840;2023-12-28T19:12:28;9.10;99.90
64869;DHT22;51349;52.424;10.840;2023-12-28T19:17:35;9.10;99.90
64869;DHT22;51349;52.424;10.840;2023-12-28T19:22:42;9.20;99.90
64869;DHT22;51349;52.424;10.840;2023-12-28T19:27:43;9.10;99.90
64869;DHT22;51349;52.424;10.840;2023-12-28T19:32:44;9.10;99.90
64869;DHT22;51349;52.424;10.840;2023-12-28T19:37:46;9.20;99.90
64869;DHT22;51349;52.424;10.840;2023-12-28T19:42:47;9.20;99.90
64869;DHT22;51349;52.424;10.840;2023-12-28T19:47:48;9.00;99.90
64869;DHT22;51349;52.424;10.840;2023-12-28T19:52:49;9.10;99.90
64869;DHT22;51349;52.424;10.840;2023-12-28T19:57:50;9.00;99.90
64869;DHT22;51349;52.424;10.840;2023-12-28T20:02:50;9.10;99.90
64869;DHT22;51349;52.424;10.840;2023-12-28T20:07:51;9.00;99.90
64869;DHT22;51349;52.424;10.840;2023-12-28T20:12:52;9.00;99.90
64869;DHT22;51349;52.424;10.840;2023-12-28T20:17:53;8.90;99.90
64869;DHT22;51349;52.424;10.840;2023-12-28T20:22:54;8.90;99.90
64869;DHT22;51349;52.424;10.840;2023-12-28T20:27:55;8.80;99.90
64869;DHT22;51349;52.424;10.840;2023-12-28T20:32:58;8.90;99.90
64869;DHT22;51349;52.424;10.840;2023-12-28T20:37:58;9.00;99.90
64869;DHT22;51349;52.424;10.840;2023-12-28T20:42:59;8.90;99.90
64869;DHT22;51349;52.424;10.840;2023-12-28T20:48:00;9.10;99.90
64869;DHT22;51349;52.424;10.840;2023-12-28T20:53:01;9.10;99.90
64869;DHT22;51349;52.424;10.840;2023-12-28T20:58:02;9.10;99.90
64869;DHT22;51349;52.424;10.840;2023-12-28T21:03:06;9.10;99.90
64869;DHT22;51349;52.424;10.840;2023-12-28T21:08:07;9.10;99.90
64869;DHT22;51349;52.424;10.840;2023-12-28T21:13:08;9.10;99.90
64869;DHT22;51349;52.424;10.840;2023-12-28T21:18:17;9.10;99.90
64869;DHT22;51349;52.424;10.840;2023-12-28T21:23:19;9.10;99.90
64869;DHT22;51349;52.424;10.840;2023-12-28T21:28:20;9.10;99.90
64869;DHT22;51349;52.424;10.840;2023-12-28T21:33:20;9.00;99.90
64869;DHT22;51349;52.424;10.840;2023-12-28T21:38:21;9.00;99.90
64869;DHT22;51349;52.424;10.840;2023-12-28T21:43:22;9.00;99.90
64869;DHT22;51349;52.424;10.840;2023-12-28T21:48:22;8.90;99.90
64869;DHT22;51349;52.424;10.840;2023-12-28T21:53:23;9.00;99.90
64869;DHT22;51349;52.424;10.840;2023-12-28T21:58:24;8.90;99.90
64869;DHT22;51349;52.424;10.840;2023-12-28T22:03:25;8.90;99.90
64869;DHT22;51349;52.424;10.840;2023-12-28T22:08:26;9.00;99.90
64869;DHT22;51349;52.424;10.840;2023-12-28T22:13:27;8.90;99.90
64869;DHT22;51349;52.424;10.840;2023-12-28T22:18:28;9.00;99.90
64869;DHT22;51349;52.424;10.840;2023-12-28T22:23:29;8.90;99.90
64869;DHT22;51349;52.424;10.840;2023-12-28T22:28:31;9.10;99.90
64869;DHT22;51349;52.424;10.840;2023-12-28T22:33:32;9.00;99.90
64869;DHT22;51349;52.424;10.840;2023-12-28T22:38:32;9.10;99.90
64869;DHT22;51349;52.424;10.840;2023-12-28T22:43:33;9.10;99.90
64869;DHT22;51349;52.424;10.840;2023-12-28T22:48:34;9.00;99.90
64869;DHT22;51349;52.424;10.840;2023-12-28T22:53:34;9.10;99.90
64869;DHT22;51349;52.424;10.840;2023-12-28T22:58:35;9.10;99.90
64869;DHT22;51349;52.424;10.840;2023-12-28T23:03:36;9.00;99.90
64869;DHT22;51349;52.424;10.840;2023-12-28T23:08:37;9.00;99.90
64869;DHT22;51349;52.424;10.840;2023-12-28T23:13:37;8.90;99.90
64869;DHT22;51349;52.424;10.840;2023-12-28T23:18:38;9.10;99.90
64869;DHT22;51349;52.424;10.840;2023-12-28T23:23:39;9.00;99.90
64869;DHT22;51349;52.424;10.840;2023-12-28T23:28:40;9.10;99.90
64869;DHT22;51349;52.424;10.840;2023-12-28T23:33:40;9.10;99.90
64869;DHT22;51349;52.424;10.840;2023-12-28T23:38:41;9.20;99.90
64869;DHT22;51349;52.424;10.840;2023-12-28T23:43:42;9.20;99.90
64869;DHT22;51349;52.424;10.840;2023-12-28T23:48:42;9.20;99.90
64869;DHT22;51349;52.424;10.840;2023-12-28T23:53:45;9.20;99.90
64869;DHT22;51349;52.424;10.840;2023-12-28T23:58:46;9.10;99.90
